createdAt,value
2022-12-05T00:17:19.598Z,98515.75
2022-12-05T00:37:22.062Z,98520.53
2022-12-05T00:57:24.660Z,98504.72
2022-12-05T01:17:27.461Z,98500.37
2022-12-05T01:37:30.086Z,98466.88
2022-12-05T01:57:32.875Z,98486.25
2022-12-05T02:17:35.489Z,98475.28
2022-12-05T02:37:38.216Z,98458.19
2022-12-05T02:57:40.866Z,98474.56
2022-12-05T03:17:43.585Z,98469.09
2022-12-05T03:37:46.533Z,98473.84
2022-12-05T03:57:49.418Z,98465.28
2022-12-05T04:17:53.720Z,98479.09
2022-12-05T04:37:56.436Z,98468.63
2022-12-05T04:57:58.941Z,98423.25
2022-12-05T05:18:01.741Z,98400.66
2022-12-05T05:38:04.322Z,98409.50
2022-12-05T05:58:06.953Z,98423.47
2022-12-05T06:18:09.665Z,98415.87
2022-12-05T06:38:14.209Z,98420.19
2022-12-05T06:58:24.093Z,98419.81
2022-12-05T07:18:26.658Z,98422.59
2022-12-05T07:38:29.463Z,98447.03
2022-12-05T07:58:31.983Z,98449.94
2022-12-05T08:18:34.668Z,98440.03
2022-12-05T08:38:37.293Z,98441.13
2022-12-05T08:58:39.897Z,98441.28
2022-12-05T09:18:42.483Z,98428.00
2022-12-05T09:59:06.841Z,98419.12
2022-12-05T10:19:09.361Z,98400.94
2022-12-05T10:39:12.156Z,98383.06
2022-12-05T10:59:14.990Z,98378.44
2022-12-05T11:19:18.173Z,98369.50
2022-12-05T11:39:20.881Z,98346.28
2022-12-05T11:59:23.948Z,98332.97
2022-12-05T12:19:26.609Z,98337.31
2022-12-05T12:39:29.257Z,98336.56
2022-12-05T12:59:33.250Z,98335.69
2022-12-05T13:19:39.005Z,98340.91
2022-12-05T13:40:00.712Z,98343.38
2022-12-05T14:00:07.048Z,98333.03
2022-12-05T14:20:11.080Z,98345.09
2022-12-05T14:40:13.607Z,98364.31
2022-12-05T15:00:16.336Z,98356.28
2022-12-05T15:20:18.980Z,98352.72
2022-12-05T15:40:23.059Z,98340.97
2022-12-05T16:00:27.242Z,98328.28
2022-12-05T16:20:29.740Z,98342.22
2022-12-05T16:40:32.470Z,98336.06
2022-12-05T17:00:35.273Z,98320.66
2022-12-05T17:20:37.876Z,98322.69
2022-12-05T17:40:40.547Z,98296.75
2022-12-05T18:00:43.521Z,98346.22
2022-12-05T18:20:46.064Z,98351.59
2022-12-05T18:40:48.777Z,98332.37
2022-12-05T19:00:51.584Z,98345.06
2022-12-05T19:20:54.130Z,98330.44
2022-12-05T19:40:57.242Z,98322.78
2022-12-05T20:01:02.024Z,98335.97
2022-12-05T20:21:05.126Z,98335.62
2022-12-05T20:41:07.617Z,98329.06
2022-12-05T21:01:10.455Z,98320.12
2022-12-05T21:21:15.340Z,98311.84
2022-12-05T21:41:17.838Z,98305.56
2022-12-05T22:01:20.510Z,98295.38
2022-12-05T22:21:23.294Z,98286.13
2022-12-05T22:41:26.106Z,98278.37
2022-12-05T23:01:28.847Z,98255.22
2022-12-05T23:21:31.467Z,98250.34
2022-12-05T23:41:34.163Z,98246.06
